sensor_id;sensor_type;location;lat;lon;timestamp;pressure;altitude;pressure_sealevel;temperature;humidity
40650;BME280;26342;42.826;23.992;2023-02-10T00:01:49;97280.94;;;-9.69;100.00
40650;BME280;26342;42.826;23.992;2023-02-10T00:04:14;97281.19;;;-9.74;100.00
40650;BME280;26342;42.826;23.992;2023-02-10T00:06:40;97285.53;;;-9.74;100.00
40650;BME280;26342;42.826;23.992;2023-02-10T00:09:06;97291.59;;;-9.75;100.00
40650;BME280;26342;42.826;23.992;2023-02-10T00:11:32;97282.50;;;-9.67;100.00
40650;BME280;26342;42.826;23.992;2023-02-10T00:14:17;97291.84;;;-9.64;100.00
40650;BME280;26342;42.826;23.992;2023-02-10T00:16:43;97291.38;;;-9.71;100.00
40650;BME280;26342;42.826;23.992;2023-02-10T00:19:09;97294.75;;;-9.54;100.00
40650;BME280;26342;42.826;23.992;2023-02-10T00:21:35;97290.56;;;-9.57;100.00
40650;BME280;26342;42.826;23.992;2023-02-10T00:24:00;97266.13;;;-9.97;100.00
40650;BME280;26342;42.826;23.992;2023-02-10T00:26:26;97289.69;;;-9.88;100.00
40650;BME280;26342;42.826;23.992;2023-02-10T00:28:51;97285.31;;;-10.01;100.00
40650;BME280;26342;42.826;23.992;2023-02-10T00:31:17;97284.13;;;-10.27;100.00
40650;BME280;26342;42.826;23.992;2023-02-10T00:33:46;97287.53;;;-10.11;100.00
40650;BME280;26342;42.826;23.992;2023-02-10T00:36:13;97276.53;;;-9.99;100.00
40650;BME280;26342;42.826;23.992;2023-02-10T00:38:40;97286.44;;;-9.91;100.00
40650;BME280;26342;42.826;23.992;2023-02-10T00:41:15;97286.13;;;-9.85;100.00
40650;BME280;26342;42.826;23.992;2023-02-10T00:43:41;97281.88;;;-10.02;100.00
40650;BME280;26342;42.826;23.992;2023-02-10T00:46:08;97283.97;;;-10.08;100.00
40650;BME280;26342;42.826;23.992;2023-02-10T00:48:34;97276.97;;;-10.06;100.00
40650;BME280;26342;42.826;23.992;2023-02-10T00:51:00;97274.13;;;-10.02;100.00
40650;BME280;26342;42.826;23.992;2023-02-10T00:53:25;97281.88;;;-10.02;100.00
40650;BME280;26342;42.826;23.992;2023-02-10T00:55:51;97271.72;;;-10.05;100.00
40650;BME280;26342;42.826;23.992;2023-02-10T00:58:16;97259.06;;;-10.09;100.00
40650;BME280;26342;42.826;23.992;2023-02-10T01:00:42;97271.97;;;-9.94;100.00
40650;BME280;26342;42.826;23.992;2023-02-10T01:03:08;97266.88;;;-9.95;100.00
40650;BME280;26342;42.826;23.992;2023-02-10T01:05:33;97264.56;;;-10.00;100.00
40650;BME280;26342;42.826;23.992;2023-02-10T01:07:58;97255.22;;;-10.02;100.00
40650;BME280;26342;42.826;23.992;2023-02-10T01:10:24;97252.72;;;-10.04;100.00
40650;BME280;26342;42.826;23.992;2023-02-10T01:12:49;97256.53;;;-9.95;100.00
40650;BME280;26342;42.826;23.992;2023-02-10T01:15:15;97249.06;;;-10.00;100.00
40650;BME280;26342;42.826;23.992;2023-02-10T01:17:40;97237.56;;;-10.10;100.00
40650;BME280;26342;42.826;23.992;2023-02-10T01:20:06;97242.41;;;-10.35;100.00
40650;BME280;26342;42.826;23.992;2023-02-10T01:22:33;97233.19;;;-10.39;100.00
40650;BME280;26342;42.826;23.992;2023-02-10T01:24:59;97221.03;;;-10.37;100.00
40650;BME280;26342;42.826;23.992;2023-02-10T01:27:24;97223.50;;;-10.20;100.00
40650;BME280;26342;42.826;23.992;2023-02-10T01:29:49;97226.31;;;-10.09;100.00
40650;BME280;26342;42.826;23.992;2023-02-10T01:32:15;97222.00;;;-10.08;100.00
40650;BME280;26342;42.826;23.992;2023-02-10T01:34:40;97208.81;;;-10.34;100.00
40650;BME280;26342;42.826;23.992;2023-02-10T01:37:06;97211.19;;;-10.62;100.00
40650;BME280;26342;42.826;23.992;2023-02-10T01:39:31;97202.38;;;-10.74;100.00
40650;BME280;26342;42.826;23.992;2023-02-10T01:41:57;97209.59;;;-10.81;100.00
40650;BME280;26342;42.826;23.992;2023-02-10T01:46:48;97201.50;;;-10.90;100.00
40650;BME280;26342;42.826;23.992;2023-02-10T01:49:19;97212.19;;;-10.98;100.00
40650;BME280;26342;42.826;23.992;2023-02-10T01:51:53;97195.69;;;-10.94;100.00
40650;BME280;26342;42.826;23.992;2023-02-10T01:54:23;97189.69;;;-10.94;100.00
40650;BME280;26342;42.826;23.992;2023-02-10T01:56:51;97191.75;;;-11.01;100.00
40650;BME280;26342;42.826;23.992;2023-02-10T01:59:17;97179.88;;;-10.88;100.00
40650;BME280;26342;42.826;23.992;2023-02-10T02:01:45;97190.34;;;-10.91;100.00
40650;BME280;26342;42.826;23.992;2023-02-10T02:04:11;97184.72;;;-10.82;100.00
40650;BME280;26342;42.826;23.992;2023-02-10T02:06:36;97171.22;;;-10.87;100.00
40650;BME280;26342;42.826;23.992;2023-02-10T02:09:02;97185.38;;;-10.78;100.00
40650;BME280;26342;42.826;23.992;2023-02-10T02:27:47;97175.63;;;-11.05;100.00
40650;BME280;26342;42.826;23.992;2023-02-10T02:33:24;97178.31;;;-11.23;100.00
40650;BME280;26342;42.826;23.992;2023-02-10T02:36:20;97166.03;;;-11.18;100.00
40650;BME280;26342;42.826;23.992;2023-02-10T02:38:48;97166.56;;;-10.96;100.00
40650;BME280;26342;42.826;23.992;2023-02-10T02:41:22;97153.09;;;-10.85;100.00
40650;BME280;26342;42.826;23.992;2023-02-10T02:43:47;97143.19;;;-10.93;100.00
40650;BME280;26342;42.826;23.992;2023-02-10T02:49:13;97146.25;;;-11.02;100.00
40650;BME280;26342;42.826;23.992;2023-02-10T02:51:55;97147.41;;;-11.08;100.00
40650;BME280;26342;42.826;23.992;2023-02-10T02:54:31;97144.75;;;-11.06;100.00
40650;BME280;26342;42.826;23.992;2023-02-10T02:57:25;97137.34;;;-11.12;100.00
40650;BME280;26342;42.826;23.992;2023-02-10T03:00:03;97145.75;;;-11.09;100.00
40650;BME280;26342;42.826;23.992;2023-02-10T03:02:31;97146.22;;;-11.18;100.00
40650;BME280;26342;42.826;23.992;2023-02-10T03:04:58;97147.69;;;-11.30;100.00
40650;BME280;26342;42.826;23.992;2023-02-10T03:07:24;97146.41;;;-11.38;100.00
40650;BME280;26342;42.826;23.992;2023-02-10T03:09:49;97145.75;;;-11.42;100.00
40650;BME280;26342;42.826;23.992;2023-02-10T03:12:15;97151.97;;;-11.29;100.00
40650;BME280;26342;42.826;23.992;2023-02-10T03:14:40;97147.53;;;-11.27;100.00
40650;BME280;26342;42.826;23.992;2023-02-10T03:17:05;97149.72;;;-11.19;100.00
40650;BME280;26342;42.826;23.992;2023-02-10T03:19:31;97137.50;;;-11.15;100.00
40650;BME280;26342;42.826;23.992;2023-02-10T03:21:56;97143.88;;;-11.22;100.00
40650;BME280;26342;42.826;23.992;2023-02-10T03:24:22;97148.53;;;-11.29;100.00
40650;BME280;26342;42.826;23.992;2023-02-10T03:26:47;97140.38;;;-11.37;100.00
40650;BME280;26342;42.826;23.992;2023-02-10T03:29:13;97143.69;;;-11.35;100.00
40650;BME280;26342;42.826;23.992;2023-02-10T03:31:39;97144.28;;;-11.30;100.00
40650;BME280;26342;42.826;23.992;2023-02-10T03:34:05;97136.16;;;-11.22;100.00
40650;BME280;26342;42.826;23.992;2023-02-10T03:36:30;97130.03;;;-11.20;100.00
40650;BME280;26342;42.826;23.992;2023-02-10T03:38:59;97131.72;;;-11.03;100.00
40650;BME280;26342;42.826;23.992;2023-02-10T03:41:24;97120.06;;;-10.94;100.00
40650;BME280;26342;42.826;23.992;2023-02-10T03:43:49;97121.97;;;-10.98;100.00
40650;BME280;26342;42.826;23.992;2023-02-10T03:46:15;97114.81;;;-10.93;100.00
40650;BME280;26342;42.826;23.992;2023-02-10T03:48:40;97118.50;;;-10.97;100.00
40650;BME280;26342;42.826;23.992;2023-02-10T03:51:06;97117.41;;;-10.93;100.00
40650;BME280;26342;42.826;23.992;2023-02-10T03:53:33;97105.44;;;-10.94;100.00
40650;BME280;26342;42.826;23.992;2023-02-10T03:55:58;97116.91;;;-11.00;100.00
40650;BME280;26342;42.826;23.992;2023-02-10T03:58:24;97093.38;;;-11.09;100.00
40650;BME280;26342;42.826;23.992;2023-02-10T04:00:50;97117.66;;;-10.98;100.00
40650;BME280;26342;42.826;23.992;2023-02-10T04:03:15;97125.41;;;-10.98;100.00
40650;BME280;26342;42.826;23.992;2023-02-10T04:05:41;97115.31;;;-11.02;100.00
40650;BME280;26342;42.826;23.992;2023-02-10T04:08:07;97117.81;;;-11.01;100.00
40650;BME280;26342;42.826;23.992;2023-02-10T04:10:33;97112.41;;;-11.12;100.00
40650;BME280;26342;42.826;23.992;2023-02-10T04:12:58;97110.03;;;-11.32;100.00
40650;BME280;26342;42.826;23.992;2023-02-10T04:15:24;97112.78;;;-11.35;100.00
40650;BME280;26342;42.826;23.992;2023-02-10T04:17:49;97098.81;;;-11.64;100.00
40650;BME280;26342;42.826;23.992;2023-02-10T04:20:15;97117.53;;;-11.61;100.00
40650;BME280;26342;42.826;23.992;2023-02-10T04:22:41;97116.84;;;-11.64;100.00
40650;BME280;26342;42.826;23.992;2023-02-10T04:25:06;97091.38;;;-11.86;100.00
40650;BME280;26342;42.826;23.992;2023-02-10T04:27:32;97121.16;;;-11.80;100.00
40650;BME280;26342;42.826;23.992;2023-02-10T04:29:57;97114.88;;;-11.92;100.00
40650;BME280;26342;42.826;23.992;2023-02-10T04:32:23;97128.63;;;-11.76;100.00
40650;BME280;26342;42.826;23.992;2023-02-10T04:34:48;97117.22;;;-12.05;100.00
40650;BME280;26342;42.826;23.992;2023-02-10T04:37:14;97120.09;;;-12.28;100.00
40650;BME280;26342;42.826;23.992;2023-02-10T04:39:39;97133.03;;;-12.13;100.00
40650;BME280;26342;42.826;23.992;2023-02-10T04:42:05;97138.44;;;-12.00;100.00
40650;BME280;26342;42.826;23.992;2023-02-10T04:44:31;97139.75;;;-11.93;100.00
40650;BME280;26342;42.826;23.992;2023-02-10T04:46:56;97131.31;;;-11.79;100.00
40650;BME280;26342;42.826;23.992;2023-02-10T04:49:23;97131.38;;;-11.63;100.00
40650;BME280;26342;42.826;23.992;2023-02-10T04:51:48;97133.50;;;-11.54;100.00
40650;BME280;26342;42.826;23.992;2023-02-10T04:54:14;97138.44;;;-11.67;100.00
40650;BME280;26342;42.826;23.992;2023-02-10T04:56:39;97141.84;;;-11.66;100.00
40650;BME280;26342;42.826;23.992;2023-02-10T04:59:05;97132.06;;;-11.77;100.00
40650;BME280;26342;42.826;23.992;2023-02-10T05:01:30;97128.63;;;-11.93;100.00
40650;BME280;26342;42.826;23.992;2023-02-10T05:03:56;97134.09;;;-11.82;100.00
40650;BME280;26342;42.826;23.992;2023-02-10T05:06:21;97140.84;;;-11.64;100.00
40650;BME280;26342;42.826;23.992;2023-02-10T05:08:46;97152.03;;;-11.47;100.00
40650;BME280;26342;42.826;23.992;2023-02-10T05:11:17;97157.91;;;-11.44;100.00
40650;BME280;26342;42.826;23.992;2023-02-10T05:13:43;97150.56;;;-11.51;100.00
40650;BME280;26342;42.826;23.992;2023-02-10T05:16:10;97161.06;;;-11.56;100.00
40650;BME280;26342;42.826;23.992;2023-02-10T05:18:36;97155.63;;;-11.50;100.00
40650;BME280;26342;42.826;23.992;2023-02-10T05:21:02;97173.44;;;-11.30;100.00
40650;BME280;26342;42.826;23.992;2023-02-10T05:23:28;97171.34;;;-11.21;100.00
40650;BME280;26342;42.826;23.992;2023-02-10T05:25:53;97170.00;;;-11.29;100.00
40650;BME280;26342;42.826;23.992;2023-02-10T05:28:18;97178.72;;;-11.48;100.00
40650;BME280;26342;42.826;23.992;2023-02-10T05:30:44;97174.69;;;-11.54;100.00
40650;BME280;26342;42.826;23.992;2023-02-10T05:33:10;97175.63;;;-11.55;100.00
40650;BME280;26342;42.826;23.992;2023-02-10T05:35:35;97186.47;;;-11.66;100.00
40650;BME280;26342;42.826;23.992;2023-02-10T05:38:01;97177.53;;;-11.76;100.00
40650;BME280;26342;42.826;23.992;2023-02-10T05:40:27;97184.97;;;-11.87;100.00
40650;BME280;26342;42.826;23.992;2023-02-10T05:42:53;97184.91;;;-11.86;100.00
40650;BME280;26342;42.826;23.992;2023-02-10T05:45:19;97185.72;;;-12.02;100.00
40650;BME280;26342;42.826;23.992;2023-02-10T05:47:44;97181.47;;;-12.03;100.00
40650;BME280;26342;42.826;23.992;2023-02-10T05:50:09;97189.22;;;-11.86;100.00
40650;BME280;26342;42.826;23.992;2023-02-10T05:52:35;97187.84;;;-11.76;100.00
40650;BME280;26342;42.826;23.992;2023-02-10T05:55:00;97182.19;;;-11.82;100.00
40650;BME280;26342;42.826;23.992;2023-02-10T05:57:26;97192.78;;;-11.89;100.00
40650;BME280;26342;42.826;23.992;2023-02-10T05:59:51;97181.56;;;-12.05;100.00
40650;BME280;26342;42.826;23.992;2023-02-10T06:02:17;97184.03;;;-12.21;100.00
40650;BME280;26342;42.826;23.992;2023-02-10T06:04:42;97191.47;;;-12.15;100.00
40650;BME280;26342;42.826;23.992;2023-02-10T06:07:08;97190.13;;;-12.04;100.00
40650;BME280;26342;42.826;23.992;2023-02-10T06:09:33;97200.66;;;-11.92;100.00
40650;BME280;26342;42.826;23.992;2023-02-10T06:11:58;97198.47;;;-11.82;100.00
40650;BME280;26342;42.826;23.992;2023-02-10T06:14:24;97195.81;;;-11.80;100.00
40650;BME280;26342;42.826;23.992;2023-02-10T06:16:49;97192.00;;;-11.73;100.00
40650;BME280;26342;42.826;23.992;2023-02-10T06:19:15;97179.75;;;-11.86;100.00
40650;BME280;26342;42.826;23.992;2023-02-10T06:21:40;97193.66;;;-11.72;100.00
40650;BME280;26342;42.826;23.992;2023-02-10T06:24:06;97200.09;;;-11.64;100.00
40650;BME280;26342;42.826;23.992;2023-02-10T06:26:31;97195.56;;;-11.59;100.00
40650;BME280;26342;42.826;23.992;2023-02-10T06:28:56;97195.25;;;-11.52;100.00
40650;BME280;26342;42.826;23.992;2023-02-10T06:31:22;97192.75;;;-11.54;100.00
40650;BME280;26342;42.826;23.992;2023-02-10T06:33:49;97190.31;;;-11.57;100.00
40650;BME280;26342;42.826;23.992;2023-02-10T06:36:14;97207.34;;;-11.55;100.00
40650;BME280;26342;42.826;23.992;2023-02-10T06:38:39;97199.50;;;-11.51;100.00
40650;BME280;26342;42.826;23.992;2023-02-10T06:41:05;97203.66;;;-11.49;100.00
40650;BME280;26342;42.826;23.992;2023-02-10T06:43:31;97194.88;;;-11.45;100.00
40650;BME280;26342;42.826;23.992;2023-02-10T06:45:57;97206.22;;;-11.32;100.00
40650;BME280;26342;42.826;23.992;2023-02-10T06:48:22;97204.47;;;-11.31;100.00
40650;BME280;26342;42.826;23.992;2023-02-10T06:50:48;97206.06;;;-11.29;100.00
40650;BME280;26342;42.826;23.992;2023-02-10T06:53:13;97208.47;;;-11.26;100.00
40650;BME280;26342;42.826;23.992;2023-02-10T06:55:39;97204.69;;;-11.18;100.00
40650;BME280;26342;42.826;23.992;2023-02-10T06:58:04;97207.09;;;-11.15;100.00
40650;BME280;26342;42.826;23.992;2023-02-10T07:00:30;97211.59;;;-11.19;100.00
40650;BME280;26342;42.826;23.992;2023-02-10T07:02:57;97215.66;;;-11.15;100.00
40650;BME280;26342;42.826;23.992;2023-02-10T07:05:23;97210.88;;;-11.05;100.00
40650;BME280;26342;42.826;23.992;2023-02-10T07:07:48;97208.13;;;-11.02;100.00
40650;BME280;26342;42.826;23.992;2023-02-10T07:10:16;97211.22;;;-10.95;100.00
40650;BME280;26342;42.826;23.992;2023-02-10T07:12:41;97205.38;;;-10.99;100.00
40650;BME280;26342;42.826;23.992;2023-02-10T07:15:07;97200.22;;;-10.99;100.00
40650;BME280;26342;42.826;23.992;2023-02-10T07:17:32;97205.38;;;-10.99;100.00
40650;BME280;26342;42.826;23.992;2023-02-10T07:19:58;97194.50;;;-11.04;100.00
40650;BME280;26342;42.826;23.992;2023-02-10T07:22:24;97191.66;;;-11.00;100.00
40650;BME280;26342;42.826;23.992;2023-02-10T07:24:50;97198.75;;;-11.03;100.00
40650;BME280;26342;42.826;23.992;2023-02-10T07:27:15;97197.22;;;-11.07;100.00
40650;BME280;26342;42.826;23.992;2023-02-10T07:29:40;97192.59;;;-10.85;100.00
40650;BME280;26342;42.826;23.992;2023-02-10T07:32:06;97194.69;;;-10.76;100.00
40650;BME280;26342;42.826;23.992;2023-02-10T07:34:32;97183.41;;;-10.73;100.00
40650;BME280;26342;42.826;23.992;2023-02-10T07:36:59;97179.59;;;-10.50;100.00
40650;BME280;26342;42.826;23.992;2023-02-10T07:39:25;97173.97;;;-9.97;100.00
40650;BME280;26342;42.826;23.992;2023-02-10T07:41:52;97179.03;;;-9.35;100.00
40650;BME280;26342;42.826;23.992;2023-02-10T07:44:17;97179.00;;;-8.91;100.00
40650;BME280;26342;42.826;23.992;2023-02-10T07:46:44;97177.47;;;-8.52;100.00
40650;BME280;26342;42.826;23.992;2023-02-10T07:49:09;97179.56;;;-8.18;100.00
40650;BME280;26342;42.826;23.992;2023-02-10T07:51:35;97178.88;;;-7.80;100.00
40650;BME280;26342;42.826;23.992;2023-02-10T07:54:01;97176.13;;;-7.51;100.00
40650;BME280;26342;42.826;23.992;2023-02-10T07:56:27;97183.03;;;-7.25;100.00
40650;BME280;26342;42.826;23.992;2023-02-10T07:58:52;97160.69;;;-6.89;100.00
40650;BME280;26342;42.826;23.992;2023-02-10T08:01:17;97164.06;;;-6.51;100.00
40650;BME280;26342;42.826;23.992;2023-02-10T08:03:43;97170.41;;;-6.18;100.00
40650;BME280;26342;42.826;23.992;2023-02-10T08:06:08;97165.84;;;-5.79;100.00
40650;BME280;26342;42.826;23.992;2023-02-10T08:08:34;97173.44;;;-5.41;100.00
40650;BME280;26342;42.826;23.992;2023-02-10T08:11:03;97167.63;;;-4.98;99.90
40650;BME280;26342;42.826;23.992;2023-02-10T08:13:28;97166.72;;;-4.64;96.85
40650;BME280;26342;42.826;23.992;2023-02-10T08:15:55;97166.06;;;-4.23;94.89
40650;BME280;26342;42.826;23.992;2023-02-10T08:18:20;97168.66;;;-3.79;89.04
40650;BME280;26342;42.826;23.992;2023-02-10T08:20:45;97160.34;;;-3.41;89.03
40650;BME280;26342;42.826;23.992;2023-02-10T08:23:14;97164.94;;;-3.13;86.08
40650;BME280;26342;42.826;23.992;2023-02-10T08:25:40;97159.78;;;-3.03;86.16
40650;BME280;26342;42.826;23.992;2023-02-10T08:28:06;97157.97;;;-2.51;83.78
40650;BME280;26342;42.826;23.992;2023-02-10T08:30:31;97160.00;;;-2.14;83.11
40650;BME280;26342;42.826;23.992;2023-02-10T08:32:57;97164.63;;;-1.78;79.33
40650;BME280;26342;42.826;23.992;2023-02-10T08:35:23;97157.06;;;-1.42;77.10
40650;BME280;26342;42.826;23.992;2023-02-10T08:37:48;97156.75;;;-1.00;70.94
40650;BME280;26342;42.826;23.992;2023-02-10T08:40:14;97152.97;;;-0.78;68.72
40650;BME280;26342;42.826;23.992;2023-02-10T08:42:39;97160.19;;;-0.53;68.06
40650;BME280;26342;42.826;23.992;2023-02-10T08:45:05;97154.06;;;-0.44;65.49
40650;BME280;26342;42.826;23.992;2023-02-10T08:47:30;97157.41;;;-0.14;67.82
40650;BME280;26342;42.826;23.992;2023-02-10T08:49:55;97162.53;;;0.23;65.06
40650;BME280;26342;42.826;23.992;2023-02-10T08:52:22;97154.09;;;0.47;63.10
40650;BME280;26342;42.826;23.992;2023-02-10T08:54:48;97146.34;;;0.63;64.88
40650;BME280;26342;42.826;23.992;2023-02-10T08:57:14;97137.88;;;1.13;62.58
40650;BME280;26342;42.826;23.992;2023-02-10T08:59:39;97141.88;;;1.51;60.17
40650;BME280;26342;42.826;23.992;2023-02-10T09:02:04;97142.22;;;1.90;58.40
40650;BME280;26342;42.826;23.992;2023-02-10T09:04:30;97135.88;;;2.26;56.85
40650;BME280;26342;42.826;23.992;2023-02-10T09:06:55;97130.81;;;2.48;56.00
40650;BME280;26342;42.826;23.992;2023-02-10T09:09:22;97133.00;;;2.61;53.23
40650;BME280;26342;42.826;23.992;2023-02-10T09:11:50;97121.44;;;2.78;56.94
40650;BME280;26342;42.826;23.992;2023-02-10T09:14:15;97130.59;;;3.31;54.31
40650;BME280;26342;42.826;23.992;2023-02-10T09:16:41;97129.06;;;3.53;53.49
40650;BME280;26342;42.826;23.992;2023-02-10T09:19:06;97118.78;;;3.75;53.63
40650;BME280;26342;42.826;23.992;2023-02-10T09:21:32;97111.66;;;3.83;50.60
40650;BME280;26342;42.826;23.992;2023-02-10T09:23:57;97112.31;;;4.16;49.14
40650;BME280;26342;42.826;23.992;2023-02-10T09:26:23;97109.59;;;4.25;47.46
40650;BME280;26342;42.826;23.992;2023-02-10T09:28:48;97116.34;;;4.04;46.79
40650;BME280;26342;42.826;23.992;2023-02-10T09:31:14;97113.75;;;3.96;46.77
40650;BME280;26342;42.826;23.992;2023-02-10T09:33:43;97110.28;;;3.96;49.37
40650;BME280;26342;42.826;23.992;2023-02-10T09:36:17;97104.50;;;4.23;48.69
40650;BME280;26342;42.826;23.992;2023-02-10T09:38:43;97102.41;;;4.41;46.54
40650;BME280;26342;42.826;23.992;2023-02-10T09:49:15;97086.44;;;4.95;46.94
40650;BME280;26342;42.826;23.992;2023-02-10T09:54:30;97083.09;;;5.75;43.83
40650;BME280;26342;42.826;23.992;2023-02-10T09:57:03;97082.13;;;5.62;40.88
40650;BME280;26342;42.826;23.992;2023-02-10T09:59:32;97076.75;;;5.55;40.29
40650;BME280;26342;42.826;23.992;2023-02-10T10:02:04;97066.09;;;5.84;41.74
40650;BME280;26342;42.826;23.992;2023-02-10T10:04:34;97066.50;;;5.52;40.20
40650;BME280;26342;42.826;23.992;2023-02-10T10:07:25;97066.94;;;5.11;45.84
40650;BME280;26342;42.826;23.992;2023-02-10T10:12:28;97052.19;;;5.61;38.46
40650;BME280;26342;42.826;23.992;2023-02-10T10:14:54;97053.34;;;5.73;40.11
40650;BME280;26342;42.826;23.992;2023-02-10T10:31:34;97028.84;;;6.43;37.09
40650;BME280;26342;42.826;23.992;2023-02-10T10:36:35;97025.72;;;6.61;37.88
40650;BME280;26342;42.826;23.992;2023-02-10T10:41:40;97019.44;;;6.90;36.46
40650;BME280;26342;42.826;23.992;2023-02-10T10:44:08;97012.78;;;6.73;37.07
40650;BME280;26342;42.826;23.992;2023-02-10T10:49:00;97002.16;;;6.73;35.68
40650;BME280;26342;42.826;23.992;2023-02-10T10:51:26;96999.78;;;6.85;35.19
40650;BME280;26342;42.826;23.992;2023-02-10T10:53:54;97005.72;;;6.87;35.06
40650;BME280;26342;42.826;23.992;2023-02-10T10:58:55;97003.91;;;6.87;36.43
40650;BME280;26342;42.826;23.992;2023-02-10T11:01:42;97002.84;;;6.82;35.74
40650;BME280;26342;42.826;23.992;2023-02-10T11:04:20;97005.28;;;6.83;37.56
40650;BME280;26342;42.826;23.992;2023-02-10T11:06:50;96997.38;;;6.90;34.61
40650;BME280;26342;42.826;23.992;2023-02-10T11:09:28;96993.91;;;6.61;35.51
40650;BME280;26342;42.826;23.992;2023-02-10T11:12:04;96993.81;;;6.27;36.66
40650;BME280;26342;42.826;23.992;2023-02-10T11:14:37;96995.88;;;6.31;36.65
40650;BME280;26342;42.826;23.992;2023-02-10T11:17:23;96991.16;;;6.27;35.56
40650;BME280;26342;42.826;23.992;2023-02-10T11:19:59;96988.16;;;6.08;36.16
40650;BME280;26342;42.826;23.992;2023-02-10T11:22:26;96988.00;;;5.80;37.01
40650;BME280;26342;42.826;23.992;2023-02-10T11:24:56;96987.13;;;5.73;38.06
40650;BME280;26342;42.826;23.992;2023-02-10T11:27:22;96983.59;;;5.87;38.18
40650;BME280;26342;42.826;23.992;2023-02-10T11:29:56;96967.75;;;5.73;37.71
40650;BME280;26342;42.826;23.992;2023-02-10T11:32:29;96973.59;;;5.68;38.37
40650;BME280;26342;42.826;23.992;2023-02-10T11:34:59;96964.41;;;5.64;38.77
40650;BME280;26342;42.826;23.992;2023-02-10T11:37:37;96960.81;;;5.72;39.98
40650;BME280;26342;42.826;23.992;2023-02-10T11:40:27;96964.78;;;5.61;38.15
40650;BME280;26342;42.826;23.992;2023-02-10T11:42:55;96963.44;;;5.21;39.71
40650;BME280;26342;42.826;23.992;2023-02-10T11:45:30;96942.94;;;4.93;39.41
40650;BME280;26342;42.826;23.992;2023-02-10T11:50:32;96956.91;;;4.87;42.25
40650;BME280;26342;42.826;23.992;2023-02-10T11:52:58;96964.41;;;4.84;42.52
40650;BME280;26342;42.826;23.992;2023-02-10T11:55:37;96959.63;;;4.64;41.50
40650;BME280;26342;42.826;23.992;2023-02-10T11:58:32;96961.41;;;4.49;42.12
40650;BME280;26342;42.826;23.992;2023-02-10T12:01:41;96970.97;;;4.35;46.24
40650;BME280;26342;42.826;23.992;2023-02-10T12:06:41;96967.34;;;4.13;45.70
40650;BME280;26342;42.826;23.992;2023-02-10T12:09:27;96964.78;;;4.05;48.59
40650;BME280;26342;42.826;23.992;2023-02-10T12:12:13;96959.66;;;4.04;48.82
40650;BME280;26342;42.826;23.992;2023-02-10T12:17:27;96953.63;;;3.72;49.78
40650;BME280;26342;42.826;23.992;2023-02-10T12:22:34;96951.38;;;3.61;49.94
40650;BME280;26342;42.826;23.992;2023-02-10T12:25:21;96952.63;;;3.42;53.25
40650;BME280;26342;42.826;23.992;2023-02-10T12:35:41;96939.94;;;3.06;53.00
40650;BME280;26342;42.826;23.992;2023-02-10T12:39:00;96947.84;;;3.06;53.49
40650;BME280;26342;42.826;23.992;2023-02-10T12:46:46;96934.78;;;2.74;53.08
40650;BME280;26342;42.826;23.992;2023-02-10T12:49:18;96940.84;;;2.83;54.28
40650;BME280;26342;42.826;23.992;2023-02-10T12:52:09;96942.81;;;2.89;54.09
40650;BME280;26342;42.826;23.992;2023-02-10T12:54:52;96936.88;;;2.87;55.61
40650;BME280;26342;42.826;23.992;2023-02-10T12:57:29;96939.84;;;2.84;53.20
40650;BME280;26342;42.826;23.992;2023-02-10T13:00:05;96930.50;;;2.73;53.83
40650;BME280;26342;42.826;23.992;2023-02-10T13:08:05;96931.50;;;2.72;53.78
40650;BME280;26342;42.826;23.992;2023-02-10T13:10:37;96927.06;;;2.64;53.22
40650;BME280;26342;42.826;23.992;2023-02-10T13:13:15;96936.97;;;2.54;55.01
40650;BME280;26342;42.826;23.992;2023-02-10T13:15:59;96942.91;;;2.56;53.80
40650;BME280;26342;42.826;23.992;2023-02-10T13:18:28;96932.38;;;2.48;53.43
40650;BME280;26342;42.826;23.992;2023-02-10T13:34:25;96928.00;;;2.00;56.60
40650;BME280;26342;42.826;23.992;2023-02-10T13:37:08;96932.59;;;2.06;57.63
40650;BME280;26342;42.826;23.992;2023-02-10T13:39:37;96927.16;;;1.99;55.25
40650;BME280;26342;42.826;23.992;2023-02-10T13:50:16;96931.44;;;1.67;56.65
40650;BME280;26342;42.826;23.992;2023-02-10T13:53:05;96927.97;;;1.51;59.24
40650;BME280;26342;42.826;23.992;2023-02-10T13:58:17;96927.63;;;1.62;59.04
40650;BME280;26342;42.826;23.992;2023-02-10T14:00:49;96924.53;;;1.58;59.46
40650;BME280;26342;42.826;23.992;2023-02-10T14:08:31;96925.34;;;1.51;59.79
40650;BME280;26342;42.826;23.992;2023-02-10T14:13:57;96922.53;;;1.44;64.06
40650;BME280;26342;42.826;23.992;2023-02-10T14:16:36;96937.47;;;1.44;62.09
40650;BME280;26342;42.826;23.992;2023-02-10T14:21:56;96932.19;;;1.35;62.98
40650;BME280;26342;42.826;23.992;2023-02-10T14:24:26;96930.88;;;1.39;62.85
40650;BME280;26342;42.826;23.992;2023-02-10T14:26:52;96927.94;;;1.34;64.30
40650;BME280;26342;42.826;23.992;2023-02-10T14:29:20;96918.34;;;1.25;65.36
40650;BME280;26342;42.826;23.992;2023-02-10T14:31:56;96928.88;;;1.33;66.31
40650;BME280;26342;42.826;23.992;2023-02-10T14:36:51;96915.91;;;1.32;67.08
40650;BME280;26342;42.826;23.992;2023-02-10T14:39:20;96919.66;;;1.21;66.55
40650;BME280;26342;42.826;23.992;2023-02-10T14:41:46;96913.56;;;1.13;67.14
40650;BME280;26342;42.826;23.992;2023-02-10T14:44:39;96925.38;;;1.08;67.46
40650;BME280;26342;42.826;23.992;2023-02-10T14:47:06;96922.88;;;0.99;68.86
40650;BME280;26342;42.826;23.992;2023-02-10T14:49:39;96916.44;;;0.93;69.24
40650;BME280;26342;42.826;23.992;2023-02-10T14:52:05;96919.72;;;0.87;68.47
40650;BME280;26342;42.826;23.992;2023-02-10T14:54:37;96912.28;;;0.74;69.40
40650;BME280;26342;42.826;23.992;2023-02-10T14:57:11;96923.44;;;0.76;69.80
40650;BME280;26342;42.826;23.992;2023-02-10T14:59:37;96924.59;;;0.74;68.99